This is the latest recevied weather packets stored in our database for station/object W5ADC. If no packets are shown the sender has not sent any weather packets the latest 1 day(s).
| Time | Temp. | Humidity | Pressure | Rain* | Wind** | Luminosity | Snow |
|---|---|---|---|---|---|---|---|
| 1778002816 | 26.67° C | 72% | 1001.3 hPa | 0 mm | 2.68 m/s, 187° | 424 W/m² | - |
| 1778002513 | 27.22° C | 73% | 1001.3 hPa | 0 mm | 2.24 m/s, 147° | 480 W/m² | - |
| 1778002210 | 27.22° C | 73% | 1001.3 hPa | 0 mm | 2.68 m/s, 221° | 486 W/m² | - |
| 1778001908 | 26.67° C | 73% | 1001.4 hPa | 0 mm | 1.34 m/s, 198° | 429 W/m² | - |
| 1778001603 | 26.67° C | 74% | 1001.4 hPa | 0 mm | 0.89 m/s, 133° | 474 W/m² | - |
| 1778001299 | 26.11° C | 74% | 1001.6 hPa | 0 mm | 2.68 m/s, 210° | 493 W/m² | - |
| 1778000996 | 26.11° C | 75% | 1001.5 hPa | 0 mm | 2.68 m/s, 228° | 590 W/m² | - |
| 1778000692 | 26.11° C | 75% | 1001.5 hPa | 0 mm | 4.02 m/s, 250° | 410 W/m² | - |
| 1778000388 | 26.11° C | 75% | 1001.5 hPa | 0 mm | 1.34 m/s, 147° | 373 W/m² | - |
| 1778000085 | 26.11° C | 75% | 1001.5 hPa | 0 mm | 2.68 m/s, 169° | 443 W/m² | - |
| 1777999780 | 26.11° C | 75% | 1001.3 hPa | 0 mm | 1.79 m/s, 167° | 467 W/m² | - |
| 1777999477 | 26.11° C | 75% | 1001.5 hPa | 0 mm | 3.58 m/s, 190° | 409 W/m² | - |
| 1777999175 | 25.56° C | 76% | 1001.3 hPa | 0 mm | 1.79 m/s, 141° | 371 W/m² | - |
| 1777998873 | 26.11° C | 76% | 1001.3 hPa | 0 mm | 2.24 m/s, 222° | 337 W/m² | - |
| 1777998572 | 25.56° C | 76% | 1001.3 hPa | 0 mm | 1.79 m/s, 169° | 441 W/m² | - |
| 1777998267 | 25.56° C | 77% | 1001.3 hPa | 0 mm | 3.13 m/s, 259° | 577 W/m² | - |
| 1777997964 | 25.56° C | 77% | 1001.3 hPa | 0 mm | 3.58 m/s, 208° | 385 W/m² | - |
| 1777997661 | 25.56° C | 76% | 1001.4 hPa | 0 mm | 2.68 m/s, 149° | 452 W/m² | - |
| 1777997359 | 25.56° C | 76% | 1001.3 hPa | 0 mm | 2.68 m/s, 207° | 634 W/m² | - |
| 1777997056 | 25.56° C | 76% | 1001 hPa | 0 mm | 3.13 m/s, 185° | 344 W/m² | - |
| 1777996752 | 25.56° C | 77% | 1001 hPa | 0 mm | 3.13 m/s, 164° | 471 W/m² | - |
| 1777996449 | 25.56° C | 77% | 1001 hPa | 0 mm | 4.92 m/s, 206° | 413 W/m² | - |
| 1777996146 | 25° C | 78% | 1001.2 hPa | 0 mm | 3.58 m/s, 190° | 393 W/m² | - |
| 1777995842 | 25.56° C | 77% | 1000.8 hPa | 0 mm | 4.02 m/s, 205° | 346 W/m² | - |
| 1777995538 | 25° C | 78% | 1000.6 hPa | 0 mm | 1.79 m/s, 236° | 361 W/m² | - |
* Rain latest hour (hover to see other rain measurements)
** Current wind speed in m/s (hover to see current wind gust speed)